sensor_id;sensor_type;location;lat;lon;timestamp;temperature;humidity
41405;DHT22;27146;51.788;8.824;2022-07-23T00:00:54;16.80;99.90
41405;DHT22;27146;51.788;8.824;2022-07-23T00:03:19;16.70;99.90
41405;DHT22;27146;51.788;8.824;2022-07-23T00:05:45;16.70;99.90
41405;DHT22;27146;51.788;8.824;2022-07-23T00:08:10;16.70;99.90
41405;DHT22;27146;51.788;8.824;2022-07-23T00:10:36;16.60;99.90
41405;DHT22;27146;51.788;8.824;2022-07-23T00:13:02;16.50;99.90
41405;DHT22;27146;51.788;8.824;2022-07-23T00:15:27;16.60;99.90
41405;DHT22;27146;51.788;8.824;2022-07-23T00:17:53;16.60;99.90
41405;DHT22;27146;51.788;8.824;2022-07-23T00:20:19;16.60;99.90
41405;DHT22;27146;51.788;8.824;2022-07-23T00:22:48;16.60;99.90
41405;DHT22;27146;51.788;8.824;2022-07-23T00:25:14;16.40;99.90
41405;DHT22;27146;51.788;8.824;2022-07-23T00:27:40;16.30;99.90
41405;DHT22;27146;51.788;8.824;2022-07-23T00:30:06;16.30;99.90
41405;DHT22;27146;51.788;8.824;2022-07-23T00:32:32;16.30;99.90
41405;DHT22;27146;51.788;8.824;2022-07-23T00:34:57;16.30;99.90
41405;DHT22;27146;51.788;8.824;2022-07-23T00:37:23;16.40;99.90
41405;DHT22;27146;51.788;8.824;2022-07-23T00:39:48;16.40;99.90
41405;DHT22;27146;51.788;8.824;2022-07-23T00:42:14;16.50;99.90
41405;DHT22;27146;51.788;8.824;2022-07-23T00:44:39;16.60;99.90
41405;DHT22;27146;51.788;8.824;2022-07-23T00:47:05;16.70;99.90
41405;DHT22;27146;51.788;8.824;2022-07-23T00:49:31;16.60;99.90
41405;DHT22;27146;51.788;8.824;2022-07-23T00:51:57;16.50;99.90
41405;DHT22;27146;51.788;8.824;2022-07-23T00:54:26;16.60;99.90
41405;DHT22;27146;51.788;8.824;2022-07-23T00:56:52;16.60;99.90
41405;DHT22;27146;51.788;8.824;2022-07-23T00:59:18;16.60;99.90
41405;DHT22;27146;51.788;8.824;2022-07-23T01:01:43;16.60;99.90
41405;DHT22;27146;51.788;8.824;2022-07-23T01:04:14;16.60;99.90
41405;DHT22;27146;51.788;8.824;2022-07-23T01:06:40;16.50;99.90
41405;DHT22;27146;51.788;8.824;2022-07-23T01:09:07;16.40;99.90
41405;DHT22;27146;51.788;8.824;2022-07-23T01:11:36;16.40;99.90
41405;DHT22;27146;51.788;8.824;2022-07-23T01:14:13;16.50;99.90
41405;DHT22;27146;51.788;8.824;2022-07-23T01:16:39;16.50;99.90
41405;DHT22;27146;51.788;8.824;2022-07-23T01:19:05;16.50;99.90
41405;DHT22;27146;51.788;8.824;2022-07-23T01:21:41;16.40;99.90
41405;DHT22;27146;51.788;8.824;2022-07-23T01:24:07;16.40;99.90
41405;DHT22;27146;51.788;8.824;2022-07-23T01:26:33;16.40;99.90
41405;DHT22;27146;51.788;8.824;2022-07-23T01:28:58;16.40;99.90
41405;DHT22;27146;51.788;8.824;2022-07-23T01:31:25;16.40;99.90
41405;DHT22;27146;51.788;8.824;2022-07-23T01:33:50;16.40;99.90
41405;DHT22;27146;51.788;8.824;2022-07-23T01:36:16;16.30;99.90
41405;DHT22;27146;51.788;8.824;2022-07-23T01:38:41;16.20;99.90
41405;DHT22;27146;51.788;8.824;2022-07-23T01:41:07;16.20;99.90
41405;DHT22;27146;51.788;8.824;2022-07-23T01:43:32;16.20;99.90
41405;DHT22;27146;51.788;8.824;2022-07-23T01:45:58;16.30;99.90
41405;DHT22;27146;51.788;8.824;2022-07-23T01:48:23;16.30;99.90
41405;DHT22;27146;51.788;8.824;2022-07-23T01:50:49;16.30;99.90
41405;DHT22;27146;51.788;8.824;2022-07-23T01:53:15;16.20;99.90
41405;DHT22;27146;51.788;8.824;2022-07-23T01:55:41;16.20;99.90
41405;DHT22;27146;51.788;8.824;2022-07-23T01:58:07;16.30;99.90
41405;DHT22;27146;51.788;8.824;2022-07-23T02:00:32;16.30;99.90
41405;DHT22;27146;51.788;8.824;2022-07-23T02:02:58;16.30;99.90
41405;DHT22;27146;51.788;8.824;2022-07-23T02:05:26;16.30;99.90
41405;DHT22;27146;51.788;8.824;2022-07-23T02:07:54;16.30;99.90
41405;DHT22;27146;51.788;8.824;2022-07-23T02:10:20;16.30;99.90
41405;DHT22;27146;51.788;8.824;2022-07-23T02:12:45;16.20;99.90
41405;DHT22;27146;51.788;8.824;2022-07-23T02:15:11;16.00;99.90
41405;DHT22;27146;51.788;8.824;2022-07-23T02:17:36;15.90;99.90
41405;DHT22;27146;51.788;8.824;2022-07-23T02:20:02;15.70;99.90
41405;DHT22;27146;51.788;8.824;2022-07-23T02:22:28;15.70;99.90
41405;DHT22;27146;51.788;8.824;2022-07-23T02:24:53;15.60;99.90
41405;DHT22;27146;51.788;8.824;2022-07-23T02:27:19;15.80;99.90
41405;DHT22;27146;51.788;8.824;2022-07-23T02:29:44;15.90;99.90
41405;DHT22;27146;51.788;8.824;2022-07-23T02:32:10;15.90;99.90
41405;DHT22;27146;51.788;8.824;2022-07-23T02:34:35;15.90;99.90
41405;DHT22;27146;51.788;8.824;2022-07-23T02:37:01;15.90;99.90
41405;DHT22;27146;51.788;8.824;2022-07-23T02:39:27;15.80;99.90
41405;DHT22;27146;51.788;8.824;2022-07-23T02:41:53;15.60;99.90
41405;DHT22;27146;51.788;8.824;2022-07-23T02:44:18;15.50;99.90
41405;DHT22;27146;51.788;8.824;2022-07-23T02:46:44;15.50;99.90
41405;DHT22;27146;51.788;8.824;2022-07-23T02:49:09;15.40;99.90
41405;DHT22;27146;51.788;8.824;2022-07-23T02:51:35;15.40;99.90
41405;DHT22;27146;51.788;8.824;2022-07-23T02:54:00;15.40;99.90
41405;DHT22;27146;51.788;8.824;2022-07-23T02:56:26;15.50;99.90
41405;DHT22;27146;51.788;8.824;2022-07-23T02:58:51;15.60;99.90
41405;DHT22;27146;51.788;8.824;2022-07-23T03:01:16;15.60;99.90
41405;DHT22;27146;51.788;8.824;2022-07-23T03:03:42;15.40;99.90
41405;DHT22;27146;51.788;8.824;2022-07-23T03:06:07;15.40;99.90
41405;DHT22;27146;51.788;8.824;2022-07-23T03:08:33;15.40;99.90
41405;DHT22;27146;51.788;8.824;2022-07-23T03:10:58;15.40;99.90
41405;DHT22;27146;51.788;8.824;2022-07-23T03:13:24;15.20;99.90
41405;DHT22;27146;51.788;8.824;2022-07-23T03:15:49;15.30;99.90
41405;DHT22;27146;51.788;8.824;2022-07-23T03:18:15;15.30;99.90
41405;DHT22;27146;51.788;8.824;2022-07-23T03:20:40;15.40;99.90
41405;DHT22;27146;51.788;8.824;2022-07-23T03:23:06;15.50;99.90
41405;DHT22;27146;51.788;8.824;2022-07-23T03:25:32;15.50;99.90
41405;DHT22;27146;51.788;8.824;2022-07-23T03:27:57;15.60;99.90
41405;DHT22;27146;51.788;8.824;2022-07-23T03:30:23;15.60;99.90
41405;DHT22;27146;51.788;8.824;2022-07-23T03:32:48;15.50;99.90
41405;DHT22;27146;51.788;8.824;2022-07-23T03:35:14;15.60;99.90
41405;DHT22;27146;51.788;8.824;2022-07-23T03:37:40;15.70;99.90
41405;DHT22;27146;51.788;8.824;2022-07-23T03:40:06;15.80;99.90
41405;DHT22;27146;51.788;8.824;2022-07-23T03:42:32;15.90;99.90
41405;DHT22;27146;51.788;8.824;2022-07-23T03:44:57;15.90;99.90
41405;DHT22;27146;51.788;8.824;2022-07-23T03:47:23;15.80;99.90
41405;DHT22;27146;51.788;8.824;2022-07-23T03:49:49;15.70;99.90
41405;DHT22;27146;51.788;8.824;2022-07-23T03:52:14;15.70;99.90
41405;DHT22;27146;51.788;8.824;2022-07-23T03:54:40;15.70;99.90
41405;DHT22;27146;51.788;8.824;2022-07-23T03:57:05;15.60;99.90
41405;DHT22;27146;51.788;8.824;2022-07-23T03:59:31;15.60;99.90
41405;DHT22;27146;51.788;8.824;2022-07-23T04:01:57;15.60;99.90
41405;DHT22;27146;51.788;8.824;2022-07-23T04:04:22;15.50;99.90
41405;DHT22;27146;51.788;8.824;2022-07-23T04:06:48;15.50;99.90
41405;DHT22;27146;51.788;8.824;2022-07-23T04:09:13;15.50;99.90
41405;DHT22;27146;51.788;8.824;2022-07-23T04:11:39;15.60;99.90
41405;DHT22;27146;51.788;8.824;2022-07-23T04:14:04;15.60;99.90
41405;DHT22;27146;51.788;8.824;2022-07-23T04:16:30;15.60;99.90
41405;DHT22;27146;51.788;8.824;2022-07-23T04:18:56;15.50;99.90
41405;DHT22;27146;51.788;8.824;2022-07-23T04:21:23;15.50;99.90
41405;DHT22;27146;51.788;8.824;2022-07-23T04:23:48;15.50;99.90
41405;DHT22;27146;51.788;8.824;2022-07-23T04:26:14;15.50;99.90
41405;DHT22;27146;51.788;8.824;2022-07-23T04:28:39;15.40;99.90
41405;DHT22;27146;51.788;8.824;2022-07-23T04:31:05;15.40;99.90
41405;DHT22;27146;51.788;8.824;2022-07-23T04:33:30;15.30;99.90
41405;DHT22;27146;51.788;8.824;2022-07-23T04:35:56;15.60;99.90
41405;DHT22;27146;51.788;8.824;2022-07-23T04:38:21;16.10;99.90
41405;DHT22;27146;51.788;8.824;2022-07-23T04:40:47;16.70;99.90
41405;DHT22;27146;51.788;8.824;2022-07-23T04:43:13;16.80;99.90
41405;DHT22;27146;51.788;8.824;2022-07-23T04:45:38;16.80;99.90
41405;DHT22;27146;51.788;8.824;2022-07-23T04:48:04;16.60;99.90
41405;DHT22;27146;51.788;8.824;2022-07-23T04:50:29;16.60;99.90
41405;DHT22;27146;51.788;8.824;2022-07-23T04:52:55;16.40;99.90
41405;DHT22;27146;51.788;8.824;2022-07-23T04:55:20;16.50;99.90
41405;DHT22;27146;51.788;8.824;2022-07-23T04:57:46;16.70;99.90
41405;DHT22;27146;51.788;8.824;2022-07-23T05:00:12;16.80;99.90
41405;DHT22;27146;51.788;8.824;2022-07-23T05:02:37;18.10;99.90
41405;DHT22;27146;51.788;8.824;2022-07-23T05:05:03;19.20;99.90
41405;DHT22;27146;51.788;8.824;2022-07-23T05:07:29;19.50;99.90
41405;DHT22;27146;51.788;8.824;2022-07-23T05:09:54;20.40;99.90
41405;DHT22;27146;51.788;8.824;2022-07-23T05:12:20;21.40;99.90
41405;DHT22;27146;51.788;8.824;2022-07-23T05:14:45;22.00;99.90
41405;DHT22;27146;51.788;8.824;2022-07-23T05:17:11;22.50;99.90
41405;DHT22;27146;51.788;8.824;2022-07-23T05:19:36;23.00;99.90
41405;DHT22;27146;51.788;8.824;2022-07-23T05:22:02;21.80;99.90
41405;DHT22;27146;51.788;8.824;2022-07-23T05:24:27;22.30;99.90
41405;DHT22;27146;51.788;8.824;2022-07-23T05:26:53;22.40;99.90
41405;DHT22;27146;51.788;8.824;2022-07-23T05:29:19;22.20;99.90
41405;DHT22;27146;51.788;8.824;2022-07-23T05:31:45;22.70;99.90
41405;DHT22;27146;51.788;8.824;2022-07-23T05:34:11;22.40;99.90
41405;DHT22;27146;51.788;8.824;2022-07-23T05:36:36;21.30;99.90
41405;DHT22;27146;51.788;8.824;2022-07-23T05:39:02;20.90;99.90
41405;DHT22;27146;51.788;8.824;2022-07-23T05:41:28;20.70;99.90
41405;DHT22;27146;51.788;8.824;2022-07-23T05:43:53;20.60;99.90
41405;DHT22;27146;51.788;8.824;2022-07-23T05:46:19;20.30;99.90
41405;DHT22;27146;51.788;8.824;2022-07-23T05:48:44;20.20;99.90
41405;DHT22;27146;51.788;8.824;2022-07-23T05:51:22;19.80;99.90
41405;DHT22;27146;51.788;8.824;2022-07-23T05:53:47;19.70;99.90
41405;DHT22;27146;51.788;8.824;2022-07-23T05:56:13;19.70;99.90
41405;DHT22;27146;51.788;8.824;2022-07-23T05:58:39;19.70;99.90
41405;DHT22;27146;51.788;8.824;2022-07-23T06:01:04;19.80;99.90
41405;DHT22;27146;51.788;8.824;2022-07-23T06:03:30;19.70;99.90
41405;DHT22;27146;51.788;8.824;2022-07-23T06:05:55;19.70;99.90
41405;DHT22;27146;51.788;8.824;2022-07-23T06:08:21;19.80;99.90
41405;DHT22;27146;51.788;8.824;2022-07-23T06:10:46;20.00;99.90
41405;DHT22;27146;51.788;8.824;2022-07-23T06:13:12;20.30;99.90
41405;DHT22;27146;51.788;8.824;2022-07-23T06:15:38;20.20;99.90
41405;DHT22;27146;51.788;8.824;2022-07-23T06:18:03;20.30;99.90
41405;DHT22;27146;51.788;8.824;2022-07-23T06:20:29;20.40;99.90
41405;DHT22;27146;51.788;8.824;2022-07-23T06:22:54;20.70;99.90
41405;DHT22;27146;51.788;8.824;2022-07-23T06:25:20;20.60;99.90
41405;DHT22;27146;51.788;8.824;2022-07-23T06:27:46;20.90;99.90
41405;DHT22;27146;51.788;8.824;2022-07-23T06:30:13;20.90;99.90
41405;DHT22;27146;51.788;8.824;2022-07-23T06:32:38;20.50;99.90
41405;DHT22;27146;51.788;8.824;2022-07-23T06:35:04;20.80;99.90
41405;DHT22;27146;51.788;8.824;2022-07-23T06:37:30;21.20;99.90
41405;DHT22;27146;51.788;8.824;2022-07-23T06:39:55;21.10;99.90
41405;DHT22;27146;51.788;8.824;2022-07-23T06:42:21;20.90;99.90
41405;DHT22;27146;51.788;8.824;2022-07-23T06:44:46;20.80;99.90
41405;DHT22;27146;51.788;8.824;2022-07-23T06:47:12;20.90;99.90
41405;DHT22;27146;51.788;8.824;2022-07-23T06:49:37;20.80;99.90
41405;DHT22;27146;51.788;8.824;2022-07-23T06:52:04;20.80;99.90
41405;DHT22;27146;51.788;8.824;2022-07-23T06:54:30;21.00;99.90
41405;DHT22;27146;51.788;8.824;2022-07-23T06:56:56;21.20;99.90
41405;DHT22;27146;51.788;8.824;2022-07-23T06:59:21;21.70;99.90
41405;DHT22;27146;51.788;8.824;2022-07-23T07:01:47;21.30;99.90
41405;DHT22;27146;51.788;8.824;2022-07-23T07:04:12;21.20;99.90
41405;DHT22;27146;51.788;8.824;2022-07-23T07:06:38;21.50;99.90
41405;DHT22;27146;51.788;8.824;2022-07-23T07:09:03;21.80;99.90
41405;DHT22;27146;51.788;8.824;2022-07-23T07:11:29;21.50;99.90
41405;DHT22;27146;51.788;8.824;2022-07-23T07:13:54;21.40;99.90
41405;DHT22;27146;51.788;8.824;2022-07-23T07:16:20;21.40;99.90
41405;DHT22;27146;51.788;8.824;2022-07-23T07:18:45;21.50;99.90
41405;DHT22;27146;51.788;8.824;2022-07-23T07:21:11;21.40;99.90
41405;DHT22;27146;51.788;8.824;2022-07-23T07:23:37;21.40;99.90
41405;DHT22;27146;51.788;8.824;2022-07-23T07:26:02;21.30;99.90
41405;DHT22;27146;51.788;8.824;2022-07-23T07:28:28;21.00;99.90
41405;DHT22;27146;51.788;8.824;2022-07-23T07:30:53;21.10;99.90
41405;DHT22;27146;51.788;8.824;2022-07-23T07:33:19;21.40;99.90
41405;DHT22;27146;51.788;8.824;2022-07-23T07:35:46;21.60;99.90
41405;DHT22;27146;51.788;8.824;2022-07-23T07:38:11;21.90;99.90
41405;DHT22;27146;51.788;8.824;2022-07-23T07:40:37;22.20;99.90
41405;DHT22;27146;51.788;8.824;2022-07-23T07:43:06;22.00;99.90
41405;DHT22;27146;51.788;8.824;2022-07-23T07:45:31;22.00;99.90
41405;DHT22;27146;51.788;8.824;2022-07-23T07:47:57;22.10;99.90
41405;DHT22;27146;51.788;8.824;2022-07-23T07:50:23;22.00;99.90
41405;DHT22;27146;51.788;8.824;2022-07-23T07:52:49;21.90;99.90
41405;DHT22;27146;51.788;8.824;2022-07-23T07:55:15;21.70;99.90
41405;DHT22;27146;51.788;8.824;2022-07-23T07:57:40;22.20;99.90
41405;DHT22;27146;51.788;8.824;2022-07-23T08:00:08;21.70;99.90
41405;DHT22;27146;51.788;8.824;2022-07-23T08:02:45;21.50;99.90
41405;DHT22;27146;51.788;8.824;2022-07-23T08:05:11;21.30;99.90
41405;DHT22;27146;51.788;8.824;2022-07-23T08:07:38;20.80;99.90
41405;DHT22;27146;51.788;8.824;2022-07-23T08:10:05;21.20;99.90
41405;DHT22;27146;51.788;8.824;2022-07-23T08:12:44;21.80;99.90
41405;DHT22;27146;51.788;8.824;2022-07-23T08:15:11;21.90;99.90
41405;DHT22;27146;51.788;8.824;2022-07-23T08:17:37;21.80;99.90
41405;DHT22;27146;51.788;8.824;2022-07-23T08:20:07;22.30;99.90
41405;DHT22;27146;51.788;8.824;2022-07-23T08:22:47;22.50;99.90
41405;DHT22;27146;51.788;8.824;2022-07-23T08:25:19;22.50;99.90
41405;DHT22;27146;51.788;8.824;2022-07-23T08:27:45;22.00;99.90
41405;DHT22;27146;51.788;8.824;2022-07-23T08:30:11;21.60;99.90
41405;DHT22;27146;51.788;8.824;2022-07-23T08:32:50;21.90;99.90
41405;DHT22;27146;51.788;8.824;2022-07-23T08:35:17;22.60;99.90
41405;DHT22;27146;51.788;8.824;2022-07-23T08:37:43;22.30;99.90
41405;DHT22;27146;51.788;8.824;2022-07-23T08:40:09;21.70;99.90
41405;DHT22;27146;51.788;8.824;2022-07-23T08:42:35;21.90;99.90
41405;DHT22;27146;51.788;8.824;2022-07-23T08:45:02;21.70;99.90
41405;DHT22;27146;51.788;8.824;2022-07-23T08:47:29;22.00;99.90
41405;DHT22;27146;51.788;8.824;2022-07-23T08:49:56;22.00;99.90
41405;DHT22;27146;51.788;8.824;2022-07-23T08:52:24;22.00;99.90
41405;DHT22;27146;51.788;8.824;2022-07-23T08:54:50;22.00;99.90
41405;DHT22;27146;51.788;8.824;2022-07-23T08:57:16;21.50;99.90
41405;DHT22;27146;51.788;8.824;2022-07-23T08:59:42;22.00;99.90
41405;DHT22;27146;51.788;8.824;2022-07-23T09:02:07;22.30;99.90
41405;DHT22;27146;51.788;8.824;2022-07-23T09:04:33;21.90;99.90
41405;DHT22;27146;51.788;8.824;2022-07-23T09:07:01;21.70;99.90
41405;DHT22;27146;51.788;8.824;2022-07-23T09:09:26;21.50;99.90
41405;DHT22;27146;51.788;8.824;2022-07-23T09:12:03;21.20;99.90
41405;DHT22;27146;51.788;8.824;2022-07-23T09:14:45;21.20;99.90
41405;DHT22;27146;51.788;8.824;2022-07-23T09:17:17;21.50;99.90
41405;DHT22;27146;51.788;8.824;2022-07-23T09:19:44;22.20;99.90
41405;DHT22;27146;51.788;8.824;2022-07-23T09:22:36;22.70;99.90
41405;DHT22;27146;51.788;8.824;2022-07-23T09:25:11;22.80;99.90
41405;DHT22;27146;51.788;8.824;2022-07-23T09:27:55;22.40;99.90
41405;DHT22;27146;51.788;8.824;2022-07-23T09:30:26;22.20;99.90
41405;DHT22;27146;51.788;8.824;2022-07-23T09:33:09;22.20;99.90
41405;DHT22;27146;51.788;8.824;2022-07-23T09:38:11;22.30;99.90
41405;DHT22;27146;51.788;8.824;2022-07-23T09:40:37;22.80;99.90
41405;DHT22;27146;51.788;8.824;2022-07-23T09:43:02;22.90;99.90
41405;DHT22;27146;51.788;8.824;2022-07-23T09:45:28;22.80;99.90
41405;DHT22;27146;51.788;8.824;2022-07-23T09:48:18;22.60;99.90
41405;DHT22;27146;51.788;8.824;2022-07-23T09:50:44;22.80;99.90
41405;DHT22;27146;51.788;8.824;2022-07-23T09:53:23;22.90;99.90
41405;DHT22;27146;51.788;8.824;2022-07-23T09:55:51;22.90;99.90
41405;DHT22;27146;51.788;8.824;2022-07-23T09:58:20;23.20;99.90
41405;DHT22;27146;51.788;8.824;2022-07-23T10:00:47;23.10;99.90
41405;DHT22;27146;51.788;8.824;2022-07-23T10:03:15;23.10;99.90
41405;DHT22;27146;51.788;8.824;2022-07-23T10:05:43;23.40;99.90
41405;DHT22;27146;51.788;8.824;2022-07-23T10:08:11;23.50;99.90
41405;DHT22;27146;51.788;8.824;2022-07-23T10:10:39;23.80;99.90
41405;DHT22;27146;51.788;8.824;2022-07-23T10:13:05;23.40;99.90
41405;DHT22;27146;51.788;8.824;2022-07-23T10:15:50;23.00;99.90
41405;DHT22;27146;51.788;8.824;2022-07-23T10:18:16;23.70;99.90
41405;DHT22;27146;51.788;8.824;2022-07-23T10:20:42;23.80;99.90
41405;DHT22;27146;51.788;8.824;2022-07-23T10:23:19;24.00;99.90
41405;DHT22;27146;51.788;8.824;2022-07-23T10:34:21;22.60;99.90
41405;DHT22;27146;51.788;8.824;2022-07-23T10:39:34;22.70;99.90
41405;DHT22;27146;51.788;8.824;2022-07-23T10:42:12;23.00;99.90
41405;DHT22;27146;51.788;8.824;2022-07-23T10:44:47;23.40;99.90
41405;DHT22;27146;51.788;8.824;2022-07-23T10:47:25;23.70;99.90
41405;DHT22;27146;51.788;8.824;2022-07-23T10:50:23;23.90;99.90
41405;DHT22;27146;51.788;8.824;2022-07-23T10:53:11;24.20;99.90
41405;DHT22;27146;51.788;8.824;2022-07-23T10:55:39;23.80;99.90
41405;DHT22;27146;51.788;8.824;2022-07-23T10:58:06;23.60;99.90
41405;DHT22;27146;51.788;8.824;2022-07-23T11:00:32;23.60;99.90
41405;DHT22;27146;51.788;8.824;2022-07-23T11:03:00;23.70;99.90
41405;DHT22;27146;51.788;8.824;2022-07-23T11:05:42;23.60;99.90
41405;DHT22;27146;51.788;8.824;2022-07-23T11:13:40;23.60;99.90
41405;DHT22;27146;51.788;8.824;2022-07-23T11:16:20;24.10;99.90
41405;DHT22;27146;51.788;8.824;2022-07-23T11:18:52;24.40;99.90
41405;DHT22;27146;51.788;8.824;2022-07-23T11:24:00;23.80;99.90
41405;DHT22;27146;51.788;8.824;2022-07-23T11:37:05;24.60;99.90
41405;DHT22;27146;51.788;8.824;2022-07-23T11:39:34;24.20;99.90
41405;DHT22;27146;51.788;8.824;2022-07-23T11:42:01;24.30;99.90
41405;DHT22;27146;51.788;8.824;2022-07-23T11:44:32;24.20;99.90
41405;DHT22;27146;51.788;8.824;2022-07-23T11:47:04;24.10;99.90
41405;DHT22;27146;51.788;8.824;2022-07-23T11:49:30;24.20;99.90
41405;DHT22;27146;51.788;8.824;2022-07-23T11:52:07;23.70;99.90
41405;DHT22;27146;51.788;8.824;2022-07-23T11:54:34;23.60;99.90
41405;DHT22;27146;51.788;8.824;2022-07-23T11:57:01;24.20;99.90
41405;DHT22;27146;51.788;8.824;2022-07-23T11:59:31;24.10;99.90
41405;DHT22;27146;51.788;8.824;2022-07-23T12:02:01;24.00;99.90
41405;DHT22;27146;51.788;8.824;2022-07-23T12:04:45;24.10;99.90
41405;DHT22;27146;51.788;8.824;2022-07-23T12:07:38;24.00;99.90
41405;DHT22;27146;51.788;8.824;2022-07-23T12:10:26;23.90;99.90
41405;DHT22;27146;51.788;8.824;2022-07-23T12:12:55;24.00;99.90
41405;DHT22;27146;51.788;8.824;2022-07-23T12:15:28;24.50;99.90
41405;DHT22;27146;51.788;8.824;2022-07-23T12:17:55;24.60;99.90
41405;DHT22;27146;51.788;8.824;2022-07-23T12:20:23;24.40;99.90
41405;DHT22;27146;51.788;8.824;2022-07-23T12:22:51;24.30;99.90
41405;DHT22;27146;51.788;8.824;2022-07-23T12:25:20;24.20;99.90
41405;DHT22;27146;51.788;8.824;2022-07-23T12:27:46;24.20;99.90
41405;DHT22;27146;51.788;8.824;2022-07-23T12:31:09;24.60;99.90
41405;DHT22;27146;51.788;8.824;2022-07-23T12:33:39;24.70;99.90
41405;DHT22;27146;51.788;8.824;2022-07-23T12:36:07;24.40;99.90
41405;DHT22;27146;51.788;8.824;2022-07-23T12:38:42;24.20;99.90
41405;DHT22;27146;51.788;8.824;2022-07-23T12:41:08;24.20;99.90
41405;DHT22;27146;51.788;8.824;2022-07-23T12:43:36;24.30;99.90
41405;DHT22;27146;51.788;8.824;2022-07-23T12:46:14;24.60;99.90
41405;DHT22;27146;51.788;8.824;2022-07-23T12:48:50;24.20;99.90
41405;DHT22;27146;51.788;8.824;2022-07-23T12:53:59;24.60;99.90
41405;DHT22;27146;51.788;8.824;2022-07-23T12:56:31;24.70;99.90
41405;DHT22;27146;51.788;8.824;2022-07-23T12:59:01;24.50;99.90
41405;DHT22;27146;51.788;8.824;2022-07-23T13:01:35;24.50;99.90
41405;DHT22;27146;51.788;8.824;2022-07-23T13:04:07;24.60;99.90
41405;DHT22;27146;51.788;8.824;2022-07-23T13:09:10;24.50;99.90
41405;DHT22;27146;51.788;8.824;2022-07-23T13:11:36;24.50;99.90
41405;DHT22;27146;51.788;8.824;2022-07-23T13:14:02;24.30;99.90
41405;DHT22;27146;51.788;8.824;2022-07-23T13:16:28;24.20;99.90
41405;DHT22;27146;51.788;8.824;2022-07-23T13:18:54;24.50;99.90
41405;DHT22;27146;51.788;8.824;2022-07-23T13:21:22;24.60;99.90
41405;DHT22;27146;51.788;8.824;2022-07-23T13:23:47;24.60;99.90
41405;DHT22;27146;51.788;8.824;2022-07-23T13:26:13;24.40;99.90
41405;DHT22;27146;51.788;8.824;2022-07-23T13:28:38;24.70;99.90
41405;DHT22;27146;51.788;8.824;2022-07-23T13:31:04;24.60;99.90
41405;DHT22;27146;51.788;8.824;2022-07-23T13:33:30;24.60;99.90
41405;DHT22;27146;51.788;8.824;2022-07-23T13:35:55;24.60;99.90
41405;DHT22;27146;51.788;8.824;2022-07-23T13:38:21;24.50;99.90
41405;DHT22;27146;51.788;8.824;2022-07-23T13:40:49;24.40;99.90
41405;DHT22;27146;51.788;8.824;2022-07-23T13:43:18;24.40;99.90
41405;DHT22;27146;51.788;8.824;2022-07-23T13:45:44;24.60;99.90
41405;DHT22;27146;51.788;8.824;2022-07-23T13:48:12;24.40;99.90
41405;DHT22;27146;51.788;8.824;2022-07-23T13:50:38;24.40;99.90
41405;DHT22;27146;51.788;8.824;2022-07-23T13:53:09;24.60;99.90
41405;DHT22;27146;51.788;8.824;2022-07-23T13:55:35;24.60;99.90
41405;DHT22;27146;51.788;8.824;2022-07-23T13:58:00;24.50;99.90
41405;DHT22;27146;51.788;8.824;2022-07-23T14:00:27;24.60;99.90
41405;DHT22;27146;51.788;8.824;2022-07-23T14:02:54;24.70;99.90
41405;DHT22;27146;51.788;8.824;2022-07-23T14:05:19;24.50;99.90
41405;DHT22;27146;51.788;8.824;2022-07-23T14:07:45;24.70;99.90
41405;DHT22;27146;51.788;8.824;2022-07-23T14:10:13;24.70;99.90
41405;DHT22;27146;51.788;8.824;2022-07-23T14:12:38;24.50;99.90
41405;DHT22;27146;51.788;8.824;2022-07-23T14:15:05;24.60;99.90
41405;DHT22;27146;51.788;8.824;2022-07-23T14:17:31;24.70;99.90
41405;DHT22;27146;51.788;8.824;2022-07-23T14:19:58;24.60;99.90
41405;DHT22;27146;51.788;8.824;2022-07-23T14:22:24;24.40;99.90
41405;DHT22;27146;51.788;8.824;2022-07-23T14:24:49;24.40;99.90
41405;DHT22;27146;51.788;8.824;2022-07-23T14:27:16;24.50;99.90
41405;DHT22;27146;51.788;8.824;2022-07-23T14:29:42;24.60;99.90
41405;DHT22;27146;51.788;8.824;2022-07-23T14:32:07;24.60;99.90
41405;DHT22;27146;51.788;8.824;2022-07-23T14:34:34;24.60;99.90
41405;DHT22;27146;51.788;8.824;2022-07-23T14:37:00;24.60;99.90
41405;DHT22;27146;51.788;8.824;2022-07-23T14:39:26;24.60;99.90
41405;DHT22;27146;51.788;8.824;2022-07-23T14:41:51;24.60;99.90
41405;DHT22;27146;51.788;8.824;2022-07-23T14:44:17;24.30;99.90
41405;DHT22;27146;51.788;8.824;2022-07-23T14:46:42;24.40;99.90
41405;DHT22;27146;51.788;8.824;2022-07-23T14:49:08;24.50;99.90
41405;DHT22;27146;51.788;8.824;2022-07-23T14:51:34;24.70;99.90
41405;DHT22;27146;51.788;8.824;2022-07-23T14:53:59;24.80;99.90
41405;DHT22;27146;51.788;8.824;2022-07-23T14:56:25;24.90;99.90
41405;DHT22;27146;51.788;8.824;2022-07-23T14:58:51;24.90;99.90
41405;DHT22;27146;51.788;8.824;2022-07-23T15:01:16;24.80;99.90
41405;DHT22;27146;51.788;8.824;2022-07-23T15:03:42;24.70;99.90
41405;DHT22;27146;51.788;8.824;2022-07-23T15:06:07;24.70;99.90
41405;DHT22;27146;51.788;8.824;2022-07-23T15:08:33;24.80;99.90
41405;DHT22;27146;51.788;8.824;2022-07-23T15:10:58;24.60;99.90
41405;DHT22;27146;51.788;8.824;2022-07-23T15:13:24;24.50;99.90
41405;DHT22;27146;51.788;8.824;2022-07-23T15:15:49;24.70;99.90
41405;DHT22;27146;51.788;8.824;2022-07-23T15:18:15;24.60;99.90
41405;DHT22;27146;51.788;8.824;2022-07-23T15:20:41;24.60;99.90
41405;DHT22;27146;51.788;8.824;2022-07-23T15:23:07;24.50;99.90
41405;DHT22;27146;51.788;8.824;2022-07-23T15:25:33;24.30;99.90
41405;DHT22;27146;51.788;8.824;2022-07-23T15:27:59;24.20;99.90
41405;DHT22;27146;51.788;8.824;2022-07-23T15:30:25;24.30;99.90
41405;DHT22;27146;51.788;8.824;2022-07-23T15:32:51;24.50;99.90
41405;DHT22;27146;51.788;8.824;2022-07-23T15:35:17;24.50;99.90
41405;DHT22;27146;51.788;8.824;2022-07-23T15:37:42;24.40;99.90
41405;DHT22;27146;51.788;8.824;2022-07-23T15:40:09;24.60;99.90
41405;DHT22;27146;51.788;8.824;2022-07-23T15:42:35;24.60;99.90
41405;DHT22;27146;51.788;8.824;2022-07-23T15:45:00;24.40;99.90
41405;DHT22;27146;51.788;8.824;2022-07-23T15:47:26;24.40;99.90
41405;DHT22;27146;51.788;8.824;2022-07-23T15:49:52;24.60;99.90
41405;DHT22;27146;51.788;8.824;2022-07-23T15:52:17;24.60;99.90
41405;DHT22;27146;51.788;8.824;2022-07-23T15:54:43;24.40;99.90
41405;DHT22;27146;51.788;8.824;2022-07-23T15:57:08;24.10;99.90
41405;DHT22;27146;51.788;8.824;2022-07-23T15:59:34;24.10;99.90
41405;DHT22;27146;51.788;8.824;2022-07-23T16:02:00;24.10;99.90
41405;DHT22;27146;51.788;8.824;2022-07-23T16:04:26;24.30;99.90
41405;DHT22;27146;51.788;8.824;2022-07-23T16:06:51;24.20;99.90
41405;DHT22;27146;51.788;8.824;2022-07-23T16:09:17;24.20;99.90